Time;durP1;ratioP1;P1;durP2;ratioP2;P2;SDS_P1;SDS_P2;PMS_P1;PMS_P2;Temp;Humidity;BMP_temperature;BMP_pressure;BME280_temperature;BME280_humidity;BME280_pressure;Samples;Min_cycle;Max_cycle;Signal;HPM_P1;HPM_P2
2022/04/06 00:00:05;;;;;;;6.63;6.00;;;;;;;9.02;76.26;98958.50;5015920;28;20116;-81
2022/04/06 00:02:30;;;;;;;6.93;6.22;;;;;;;9.25;76.90;98967.22;4994950;28;20036;-80
2022/04/06 00:04:56;;;;;;;8.13;6.90;;;;;;;9.26;76.27;98971.63;4994646;28;20491;-80
2022/04/06 00:07:23;;;;;;;10.35;6.97;;;;;;;9.31;75.85;98968.06;4994412;28;20030;-81
2022/04/06 00:10:04;;;;;;;7.63;6.93;;;;;;;9.36;75.13;98978.69;4994497;28;20030;-81
2022/04/06 00:12:30;;;;;;;7.65;6.88;;;;;;;9.41;76.17;98960.91;4995816;28;20088;-80
2022/04/06 00:14:55;;;;;;;7.18;6.47;;;;;;;9.33;75.99;98960.59;4994464;28;20026;-80
2022/04/06 00:17:22;;;;;;;9.57;7.03;;;;;;;9.33;75.94;98968.31;4993699;28;20037;-80
2022/04/06 00:19:47;;;;;;;9.45;7.38;;;;;;;9.14;76.96;98958.59;4994769;28;20022;-81
2022/04/06 00:22:15;;;;;;;10.00;7.57;;;;;;;9.17;77.19;98983.19;4994529;28;20032;-81
2022/04/06 00:24:40;;;;;;;8.48;7.30;;;;;;;9.10;77.46;98973.81;4996995;28;20022;-81
2022/04/06 00:27:07;;;;;;;8.80;7.90;;;;;;;9.08;77.71;98975.59;5001483;28;20117;-81
2022/04/06 00:29:32;;;;;;;9.10;7.38;;;;;;;9.12;77.63;98990.38;4983991;28;20126;-80
2022/04/06 00:32:00;;;;;;;8.82;7.60;;;;;;;9.17;77.84;98991.69;4993993;28;20054;-81
2022/04/06 00:37:10;;;;;;;9.65;8.35;;;;;;;9.22;77.81;98973.94;4995600;28;20416;-80
2022/04/06 00:39:37;;;;;;;9.75;8.68;;;;;;;9.19;77.51;98984.22;4993790;28;20018;-81
2022/04/06 00:42:04;;;;;;;11.23;8.95;;;;;;;9.29;77.48;98984.81;4994885;28;20026;-81
2022/04/06 00:44:34;;;;;;;12.05;10.00;;;;;;;9.28;77.55;98991.78;4994959;28;20029;-81
2022/04/06 00:47:05;;;;;;;10.98;9.57;;;;;;;9.30;77.49;98994.91;4994948;28;20038;-81
2022/04/06 00:49:31;;;;;;;10.73;8.77;;;;;;;9.39;76.88;98989.84;4977780;28;20129;-81
2022/04/06 00:51:59;;;;;;;11.88;10.68;;;;;;;9.38;76.93;98990.31;4993913;28;20391;-82
2022/04/06 00:54:25;;;;;;;12.32;10.40;;;;;;;9.45;76.45;98976.47;4993703;28;20030;-81
2022/04/06 00:56:50;;;;;;;13.70;10.55;;;;;;;9.61;76.40;98992.09;4995265;28;20022;-81
2022/04/06 00:59:17;;;;;;;13.60;10.98;;;;;;;9.65;76.55;99000.38;4977280;28;20480;-82
2022/04/06 01:01:48;;;;;;;12.95;11.60;;;;;;;9.67;75.57;98989.28;4993462;28;20033;-79
2022/04/06 01:04:14;;;;;;;13.52;11.80;;;;;;;9.65;75.55;98986.94;4994222;28;20082;-81
2022/04/06 01:06:49;;;;;;;15.30;12.02;;;;;;;9.73;75.31;98993.72;4997206;28;20030;-81
2022/04/06 01:09:20;;;;;;;15.45;12.45;;;;;;;9.61;75.89;98977.09;5000460;28;20079;-81
2022/04/06 01:11:51;;;;;;;16.05;12.02;;;;;;;9.55;75.82;98982.72;4996794;28;20065;-82
2022/04/06 01:14:23;;;;;;;16.60;12.37;;;;;;;9.66;75.92;98987.72;4993764;28;20114;-82
2022/04/06 01:17:02;;;;;;;15.27;12.57;;;;;;;9.60;75.97;98969.84;4993785;28;20027;-80
2022/04/06 01:19:47;;;;;;;16.63;12.43;;;;;;;9.53;75.58;98971.84;4993560;28;20015;-80
2022/04/06 01:22:16;;;;;;;16.95;12.55;;;;;;;9.41;75.71;98956.03;4993503;28;20108;-81
2022/04/06 01:24:46;;;;;;;13.90;11.60;;;;;;;9.72;75.56;98994.25;4976071;28;20042;-81
2022/04/06 01:27:14;;;;;;;16.05;11.38;;;;;;;9.70;75.36;98985.44;4994218;28;20019;-81
2022/04/06 01:29:50;;;;;;;13.32;11.50;;;;;;;9.76;75.71;98991.94;4993141;28;20523;-81
2022/04/06 01:32:27;;;;;;;15.38;12.15;;;;;;;9.75;75.32;98990.38;4993220;28;20018;-80
2022/04/06 01:35:08;;;;;;;15.05;12.65;;;;;;;9.73;75.57;98985.19;4993470;28;20026;-81
2022/04/06 01:37:34;;;;;;;15.50;13.03;;;;;;;9.76;74.76;98994.78;4993855;28;20104;-80
2022/04/06 01:40:03;;;;;;;16.73;13.95;;;;;;;9.76;74.89;98991.94;4977144;28;20538;-82
2022/04/06 01:42:30;;;;;;;14.95;13.20;;;;;;;9.44;75.48;98959.91;4993563;28;20547;-81
2022/04/06 01:44:56;;;;;;;17.80;13.65;;;;;;;9.61;75.41;98991.31;4996325;28;20427;-81
2022/04/06 01:47:24;;;;;;;15.85;13.43;;;;;;;9.66;75.78;98979.22;4997422;28;20026;-82
2022/04/06 01:52:35;;;;;;;14.52;11.88;;;;;;;9.84;74.85;98988.13;4997134;28;20037;-81
2022/04/06 01:55:07;;;;;;;15.07;12.43;;;;;;;9.68;74.93;98974.56;4980713;28;20034;-81
2022/04/06 01:57:34;;;;;;;13.85;11.85;;;;;;;9.83;75.69;99003.63;4996918;28;20037;-81
2022/04/06 02:00:10;;;;;;;14.13;12.20;;;;;;;9.82;75.06;98989.91;4996987;28;20037;-81
2022/04/06 02:02:40;;;;;;;13.23;11.13;;;;;;;9.91;74.65;98986.88;4996791;28;20245;-81
2022/04/06 02:05:08;;;;;;;13.05;11.63;;;;;;;10.00;74.99;99008.66;4996423;28;20080;-81
2022/04/06 02:07:35;;;;;;;15.80;12.07;;;;;;;9.93;74.59;98987.91;4998734;28;20530;-80
2022/04/06 02:10:02;;;;;;;14.23;12.73;;;;;;;9.93;74.74;99001.34;4998991;28;20034;-80
2022/04/06 02:12:29;;;;;;;13.65;12.10;;;;;;;9.84;74.79;98996.66;5006093;28;20011;-80
2022/04/06 02:14:56;;;;;;;13.80;12.05;;;;;;;9.84;75.55;98999.50;5019657;28;20006;-80
2022/04/06 02:17:22;;;;;;;15.52;12.52;;;;;;;9.66;75.31;98971.47;5020264;28;20018;-79
2022/04/06 02:19:48;;;;;;;12.88;10.90;;;;;;;9.84;75.61;98999.50;5017468;28;20026;-79
2022/04/06 02:22:13;;;;;;;13.55;11.60;;;;;;;9.90;75.17;99014.53;4998855;28;20023;-80
2022/04/06 02:24:39;;;;;;;13.85;11.13;;;;;;;9.86;75.78;99011.16;5016316;28;20113;-79
2022/04/06 02:27:20;;;;;;;14.07;11.88;;;;;;;9.76;75.45;99003.31;4999319;28;20055;-82
2022/04/06 02:29:46;;;;;;;14.40;11.40;;;;;;;9.80;75.76;99004.66;5000269;28;20036;-81
2022/04/06 02:32:15;;;;;;;13.63;11.95;;;;;;;9.83;75.73;99000.78;4980068;28;20026;-81
2022/04/06 02:34:43;;;;;;;12.20;10.88;;;;;;;9.82;75.54;98998.44;4997052;28;20122;-81
2022/04/06 02:37:11;;;;;;;13.07;11.15;;;;;;;9.79;75.00;98996.59;4996129;28;20022;-81
2022/04/06 02:39:37;;;;;;;12.98;10.88;;;;;;;9.72;76.05;99014.16;4996039;28;20022;-81
2022/04/06 02:42:04;;;;;;;11.32;9.52;;;;;;;9.69;75.74;99007.41;4979827;28;20029;-80
2022/04/06 02:44:29;;;;;;;11.77;9.23;;;;;;;9.79;75.56;99014.44;4996004;28;20022;-80
2022/04/06 02:46:56;;;;;;;10.75;9.30;;;;;;;9.75;75.76;99007.44;4995855;28;20081;-81
2022/04/06 02:49:21;;;;;;;10.00;8.07;;;;;;;9.79;75.42;99000.22;5012522;28;20046;-80
2022/04/06 02:51:47;;;;;;;9.48;8.27;;;;;;;9.85;75.20;99015.28;4998170;28;20029;-81
2022/04/06 02:54:15;;;;;;;8.38;7.57;;;;;;;9.86;74.76;99016.84;4980037;28;20058;-80
2022/04/06 02:56:43;;;;;;;8.63;7.68;;;;;;;9.69;75.70;98996.03;4995006;28;20100;-81
2022/04/06 02:59:08;;;;;;;7.78;6.82;;;;;;;9.82;76.10;98996.38;4997444;28;20026;-81
2022/04/06 03:01:34;;;;;;;8.02;7.25;;;;;;;9.74;74.97;99000.97;4997585;28;20023;-81
2022/04/06 03:04:08;;;;;;;7.72;6.93;;;;;;;9.69;75.33;98986.72;4997487;28;20030;-81
2022/04/06 03:06:35;;;;;;;9.07;7.30;;;;;;;9.76;75.51;98998.41;4997593;28;20030;-81
2022/04/06 03:09:00;;;;;;;7.10;6.40;;;;;;;9.97;74.38;99002.69;4995754;28;20128;-80
2022/04/06 03:11:26;;;;;;;7.90;7.20;;;;;;;9.90;73.97;98988.16;4996985;28;20066;-82
2022/04/06 03:13:52;;;;;;;8.65;7.05;;;;;;;9.84;75.18;98993.81;4997061;28;20030;-81
2022/04/06 03:16:17;;;;;;;7.22;6.38;;;;;;;9.95;74.27;98996.75;4996344;28;20030;-81
2022/04/06 03:18:43;;;;;;;8.52;7.70;;;;;;;9.74;74.89;98986.75;4997201;28;20025;-80
2022/04/06 03:21:09;;;;;;;7.78;7.03;;;;;;;9.68;74.99;98983.09;4997048;28;20025;-80
2022/04/06 03:23:34;;;;;;;8.75;7.75;;;;;;;9.63;75.75;98980.19;4995741;28;20029;-79
2022/04/06 03:26:00;;;;;;;9.32;7.63;;;;;;;9.53;75.69;98974.69;4996713;28;20030;-81
2022/04/06 03:28:27;;;;;;;10.25;8.27;;;;;;;9.73;76.15;99001.47;5011595;28;20467;-80
2022/04/06 03:30:53;;;;;;;9.48;8.48;;;;;;;9.64;76.04;98998.81;4997119;28;20030;-81
2022/04/06 03:33:18;;;;;;;10.32;8.63;;;;;;;9.76;76.71;99006.16;4995374;28;20475;-81
2022/04/06 03:35:52;;;;;;;9.60;8.52;;;;;;;9.80;76.67;99030.25;4996745;28;20026;-80
2022/04/06 03:38:18;;;;;;;10.98;8.95;;;;;;;9.70;77.32;99023.19;5011913;28;20487;-81
2022/04/06 03:40:45;;;;;;;10.40;9.27;;;;;;;9.68;77.18;99025.72;5001679;28;20019;-80
2022/04/06 03:43:11;;;;;;;12.90;9.35;;;;;;;9.36;77.43;98978.69;5015826;28;20527;-80
2022/04/06 03:45:36;;;;;;;12.50;10.25;;;;;;;9.51;78.29;99014.25;4997772;28;20026;-81
2022/04/06 03:48:02;;;;;;;11.55;9.95;;;;;;;9.50;76.74;98998.47;4999697;28;20022;-79
2022/04/06 03:50:27;;;;;;;12.68;10.00;;;;;;;9.53;77.31;98997.44;5001237;28;20085;-79
2022/04/06 03:52:53;;;;;;;10.95;9.75;;;;;;;9.59;77.07;98991.03;4998648;28;20031;-80
2022/04/06 03:55:19;;;;;;;14.93;11.55;;;;;;;9.61;77.30;98985.63;4997238;28;20054;-80
2022/04/06 03:57:44;;;;;;;14.27;11.90;;;;;;;9.52;77.05;98966.69;4996060;28;20104;-81
2022/04/06 04:00:12;;;;;;;13.85;12.02;;;;;;;9.72;77.22;99019.84;4995969;28;20077;-80
2022/04/06 04:02:38;;;;;;;14.65;12.68;;;;;;;9.73;77.21;99018.53;4994593;28;20026;-80
2022/04/06 04:05:06;;;;;;;16.27;13.90;;;;;;;9.51;77.48;98988.66;4996104;28;20494;-81
2022/04/06 04:07:37;;;;;;;15.07;13.07;;;;;;;9.69;77.22;99013.09;4994080;28;20022;-82
2022/04/06 04:10:11;;;;;;;17.30;12.95;;;;;;;9.75;77.34;99007.44;4979039;28;20031;-81
2022/04/06 04:12:58;;;;;;;14.93;12.45;;;;;;;9.81;77.54;99013.97;4978945;28;20121;-81
2022/04/06 04:15:24;;;;;;;17.02;13.88;;;;;;;9.67;78.05;99003.50;5010341;28;20037;-81
2022/04/06 04:17:51;;;;;;;15.63;12.80;;;;;;;9.77;77.56;99010.53;4978313;28;20096;-80
2022/04/06 04:20:16;;;;;;;15.30;12.55;;;;;;;9.68;78.05;99008.66;4977886;28;20081;-81
2022/04/06 04:22:43;;;;;;;17.15;14.10;;;;;;;9.75;78.28;99011.06;4995345;28;20022;-81
2022/04/06 04:25:10;;;;;;;18.92;14.18;;;;;;;9.79;77.76;99017.28;4995393;28;20480;-80
2022/04/06 04:27:39;;;;;;;17.88;14.38;;;;;;;9.80;77.19;99018.06;4995271;28;20041;-80
2022/04/06 04:30:05;;;;;;;18.23;12.75;;;;;;;9.69;77.52;99010.25;4995173;28;20022;-80
2022/04/06 04:32:32;;;;;;;17.77;14.38;;;;;;;9.72;78.22;99011.31;4994098;28;20026;-81
2022/04/06 04:34:59;;;;;;;20.02;15.40;;;;;;;9.61;78.54;99017.69;4994028;28;20034;-81
2022/04/06 04:37:25;;;;;;;18.35;13.88;;;;;;;9.60;78.01;99001.13;4995003;28;20590;-80
2022/04/06 04:39:52;;;;;;;15.70;12.32;;;;;;;9.58;78.76;98998.00;4994730;28;20057;-80
2022/04/06 04:42:19;;;;;;;16.83;13.43;;;;;;;9.71;78.68;99021.91;4996391;28;20025;-81
2022/04/06 04:44:46;;;;;;;16.10;13.73;;;;;;;9.84;77.80;99030.00;4996234;28;20022;-80
2022/04/06 04:47:25;;;;;;;18.75;15.00;;;;;;;9.55;78.52;99008.31;4978005;28;20077;-81
2022/04/06 04:49:51;;;;;;;17.98;14.77;;;;;;;9.71;78.24;99036.13;4993574;28;20054;-82
2022/04/06 04:52:18;;;;;;;20.40;14.85;;;;;;;9.66;78.57;99027.53;4995217;28;20037;-82
2022/04/06 04:54:44;;;;;;;19.40;15.35;;;;;;;9.57;78.71;99008.56;4993674;28;20031;-81
2022/04/06 04:57:11;;;;;;;20.38;15.55;;;;;;;9.50;79.31;98995.63;5009298;28;20125;-80
2022/04/06 04:59:37;;;;;;;20.67;15.80;;;;;;;9.59;78.89;99013.75;4994633;28;20479;-81
2022/04/06 05:02:04;;;;;;;18.77;14.30;;;;;;;9.42;78.81;98985.97;5009862;28;20467;-81
2022/04/06 05:04:31;;;;;;;17.55;14.65;;;;;;;9.60;78.81;99006.81;4994689;28;20298;-81
2022/04/06 05:06:58;;;;;;;16.98;13.90;;;;;;;9.69;78.75;99015.94;4994649;28;20037;-80
2022/04/06 05:09:24;;;;;;;16.77;14.23;;;;;;;9.80;78.39;99015.25;4995602;28;20026;-81
2022/04/06 05:11:50;;;;;;;17.40;13.57;;;;;;;9.99;77.25;99033.47;4996217;28;20074;-83
2022/04/06 05:14:15;;;;;;;16.00;13.02;;;;;;;10.11;78.02;99035.13;4994538;28;20030;-80
2022/04/06 05:16:42;;;;;;;18.70;13.23;;;;;;;9.83;77.84;99011.38;4998714;28;20027;-81
2022/04/06 05:19:09;;;;;;;17.35;12.88;;;;;;;9.85;78.02;99038.03;5017147;28;20066;-82
2022/04/06 05:21:36;;;;;;;18.13;14.35;;;;;;;9.83;78.24;99051.19;4999965;28;20026;-79
2022/04/06 05:24:04;;;;;;;18.30;13.95;;;;;;;9.79;78.36;99033.56;4998353;28;20034;-79
2022/04/06 05:26:31;;;;;;;16.08;12.73;;;;;;;9.59;79.67;99019.44;4999387;28;20030;-80
2022/04/06 05:28:56;;;;;;;15.95;12.88;;;;;;;9.71;79.79;99041.81;4995302;28;20090;-72
2022/04/06 05:31:23;;;;;;;15.38;11.65;;;;;;;9.89;79.29;99052.78;4995202;28;20426;-72
2022/04/06 05:33:49;;;;;;;16.55;11.48;;;;;;;9.85;79.54;99049.41;4993114;28;20042;-74
2022/04/06 05:36:15;;;;;;;14.80;11.63;;;;;;;9.89;79.37;99046.31;4994460;28;20172;-73
2022/04/06 05:38:40;;;;;;;14.52;11.57;;;;;;;9.88;78.64;99056.13;4993206;28;20084;-74
2022/04/06 05:41:07;;;;;;;14.98;11.40;;;;;;;10.00;79.13;99059.84;4993992;28;20460;-72
2022/04/06 05:43:32;;;;;;;13.70;11.82;;;;;;;10.02;78.70;99054.41;5009345;28;20018;-74
2022/04/06 05:45:58;;;;;;;12.85;10.18;;;;;;;10.10;79.02;99053.47;4975911;28;20030;-74
2022/04/06 05:48:24;;;;;;;14.90;12.20;;;;;;;10.12;78.50;99050.88;4992027;28;20129;-74
2022/04/06 05:50:50;;;;;;;11.75;9.15;;;;;;;10.31;77.46;99051.31;4993961;28;20120;-73
2022/04/06 05:53:17;;;;;;;10.40;8.35;;;;;;;10.29;77.97;99051.81;4992619;28;20038;-75
2022/04/06 05:55:45;;;;;;;7.90;7.10;;;;;;;10.33;77.47;99055.19;4992213;28;20038;-75
2022/04/06 05:58:11;;;;;;;7.65;6.72;;;;;;;10.42;77.69;99062.75;4992490;28;20038;-74
2022/04/06 06:00:36;;;;;;;7.05;5.50;;;;;;;10.55;76.60;99051.72;4992210;28;20471;-78
2022/04/06 06:03:02;;;;;;;7.25;6.40;;;;;;;10.56;76.04;99058.19;4992089;28;20462;-77
2022/04/06 06:05:27;;;;;;;6.50;5.90;;;;;;;10.69;76.69;99064.19;4992520;28;20030;-77
2022/04/06 06:07:52;;;;;;;6.72;5.43;;;;;;;10.86;75.61;99067.88;4992139;28;20061;-75
2022/04/06 06:10:19;;;;;;;8.95;6.55;;;;;;;10.91;74.89;99069.19;4993181;28;20023;-76
2022/04/06 06:12:44;;;;;;;7.40;5.38;;;;;;;10.90;74.85;99056.28;4992388;28;20400;-75
2022/04/06 06:15:10;;;;;;;5.55;5.00;;;;;;;10.86;74.00;99036.56;4992058;28;20530;-75
2022/04/06 06:17:38;;;;;;;5.68;4.60;;;;;;;11.14;74.58;99074.50;4992431;28;20048;-75
2022/04/06 06:20:08;;;;;;;5.68;4.60;;;;;;;10.98;74.42;99068.72;4992717;28;20031;-74
2022/04/06 06:22:35;;;;;;;5.68;4.25;;;;;;;11.14;74.25;99079.41;4992949;28;20054;-74
2022/04/06 06:25:01;;;;;;;6.68;5.03;;;;;;;11.09;74.33;99078.09;4993633;28;20034;-77
2022/04/06 06:27:27;;;;;;;5.35;4.65;;;;;;;11.10;74.44;99065.38;4994702;28;20076;-76
2022/04/06 06:29:52;;;;;;;6.10;4.63;;;;;;;11.07;74.52;99069.28;4997154;28;20030;-76
2022/04/06 06:32:21;;;;;;;6.47;4.75;;;;;;;11.12;74.42;99057.13;4996053;28;20018;-76
2022/04/06 06:34:46;;;;;;;6.43;4.53;;;;;;;11.20;73.37;99060.22;4996413;28;20026;-73
2022/04/06 06:37:11;;;;;;;5.75;4.47;;;;;;;11.12;73.66;99031.47;4997022;28;20430;-75
2022/04/06 06:39:43;;;;;;;5.20;4.68;;;;;;;11.37;73.47;99068.84;4999526;28;20104;-75
2022/04/06 06:42:09;;;;;;;6.43;4.85;;;;;;;11.43;72.31;99056.16;4997472;28;20069;-75
2022/04/06 06:44:34;;;;;;;6.47;4.55;;;;;;;11.61;71.51;99074.84;4995486;28;20034;-74
2022/04/06 06:46:59;;;;;;;5.85;4.88;;;;;;;11.50;71.50;99077.66;4995572;28;20034;-74
2022/04/06 06:49:28;;;;;;;8.40;5.03;;;;;;;11.50;72.16;99077.66;5009651;28;20046;-75
2022/04/06 06:51:53;;;;;;;4.38;3.92;;;;;;;11.64;72.13;99085.22;4995456;28;20069;-73
2022/04/06 06:54:19;;;;;;;7.75;5.40;;;;;;;11.61;72.27;99075.63;4995403;28;20030;-75
2022/04/06 06:56:44;;;;;;;5.70;4.50;;;;;;;11.63;72.29;99078.75;4994207;28;20061;-74
2022/04/06 06:59:15;;;;;;;6.28;5.45;;;;;;;11.87;71.96;99075.41;4995531;28;20030;-75
2022/04/06 07:01:40;;;;;;;7.63;6.15;;;;;;;12.09;71.52;99080.31;4995509;28;20113;-75
2022/04/06 07:04:08;;;;;;;7.53;5.28;;;;;;;12.24;70.23;99083.69;4994237;28;20065;-75
2022/04/06 07:06:36;;;;;;;6.35;5.10;;;;;;;12.45;69.47;99084.19;4995403;28;20357;-74
2022/04/06 07:09:01;;;;;;;7.20;5.68;;;;;;;12.47;69.65;99073.81;4996533;28;20030;-75
2022/04/06 07:11:28;;;;;;;7.30;6.00;;;;;;;12.47;68.45;99081.59;4995167;28;20165;-74
2022/04/06 07:13:54;;;;;;;8.80;6.30;;;;;;;12.33;69.07;99082.66;4995161;28;20050;-77
2022/04/06 07:16:23;;;;;;;8.23;6.45;;;;;;;12.37;68.77;99086.03;5000257;28;20022;-75
2022/04/06 07:18:48;;;;;;;10.35;6.20;;;;;;;12.32;68.21;99072.53;5030722;28;20036;-75
2022/04/06 07:21:14;;;;;;;8.93;6.07;;;;;;;12.17;69.08;99080.59;4998324;28;20026;-74
2022/04/06 07:23:44;;;;;;;6.85;5.88;;;;;;;12.03;69.70;99068.94;5014280;28;20502;-74
2022/04/06 07:26:09;;;;;;;6.05;5.28;;;;;;;12.08;69.90;99078.78;5030693;28;20483;-74
2022/04/06 07:28:35;;;;;;;6.82;5.38;;;;;;;12.05;69.77;99076.97;5015540;28;20069;-74
2022/04/06 07:31:02;;;;;;;7.00;5.15;;;;;;;12.04;69.63;99059.06;5015356;28;20033;-74
2022/04/06 07:33:28;;;;;;;5.93;5.13;;;;;;;12.36;69.09;99068.13;5013422;28;20038;-75
2022/04/06 07:35:54;;;;;;;6.13;5.00;;;;;;;12.50;69.32;99075.63;5013861;28;20387;-75
2022/04/06 07:38:20;;;;;;;5.35;4.85;;;;;;;12.58;68.66;99080.81;5015200;28;20026;-76
2022/04/06 07:40:46;;;;;;;5.65;5.00;;;;;;;12.67;67.79;99066.22;5013746;28;20029;-74
2022/04/06 07:43:12;;;;;;;5.85;4.43;;;;;;;12.95;67.14;99070.53;5013774;28;20049;-74
2022/04/06 07:45:40;;;;;;;8.07;5.82;;;;;;;13.12;66.92;99076.22;5013871;28;20106;-75
2022/04/06 07:48:06;;;;;;;8.00;5.43;;;;;;;13.01;66.79;99072.59;5013560;28;20037;-75
2022/04/06 07:50:31;;;;;;;7.53;5.35;;;;;;;13.07;66.60;99077.00;5014711;28;20050;-75
2022/04/06 07:52:58;;;;;;;5.32;4.82;;;;;;;12.98;66.74;99058.03;5014503;28;20123;-75
2022/04/06 07:55:24;;;;;;;5.68;4.70;;;;;;;13.08;65.83;99058.50;4981041;28;20045;-75
2022/04/06 07:57:50;;;;;;;6.95;5.32;;;;;;;13.15;65.40;99072.31;4997216;28;20029;-74
2022/04/06 08:00:17;;;;;;;5.57;4.97;;;;;;;13.04;65.86;99080.88;4996976;28;20121;-75
2022/04/06 08:02:45;;;;;;;6.82;4.88;;;;;;;12.94;65.87;99080.41;4997012;28;20050;-73
2022/04/06 08:05:10;;;;;;;8.82;5.28;;;;;;;12.84;65.94;99069.78;4981000;28;20037;-76
2022/04/06 08:07:39;;;;;;;6.13;5.50;;;;;;;12.98;65.50;99078.06;4997290;28;20040;-76
2022/04/06 08:10:11;;;;;;;5.90;5.00;;;;;;;13.00;65.37;99071.81;5013966;28;20106;-73
2022/04/06 08:12:38;;;;;;;6.20;5.07;;;;;;;13.14;65.35;99075.69;5012957;28;20033;-75
2022/04/06 08:15:05;;;;;;;5.88;5.13;;;;;;;13.17;64.95;99083.97;5014761;28;20033;-76
2022/04/06 08:17:41;;;;;;;6.60;4.90;;;;;;;13.17;65.25;99086.81;5013236;28;20084;-75
2022/04/06 08:20:15;;;;;;;5.03;4.28;;;;;;;13.20;65.58;99085.78;5013120;28;20431;-74
2022/04/06 08:22:45;;;;;;;5.78;3.85;;;;;;;13.21;65.02;99078.00;5014704;28;20044;-75
2022/04/06 08:25:12;;;;;;;4.93;4.30;;;;;;;13.26;65.21;99077.97;5013603;28;20045;-74
2022/04/06 08:27:41;;;;;;;4.78;3.90;;;;;;;13.21;65.33;99083.72;4980732;28;20120;-75
2022/04/06 08:30:08;;;;;;;6.00;4.72;;;;;;;13.37;65.38;99092.19;4996960;28;20033;-75
2022/04/06 08:32:34;;;;;;;5.43;4.60;;;;;;;13.39;64.55;99080.22;5012723;28;20030;-75
2022/04/06 08:35:00;;;;;;;6.65;4.50;;;;;;;13.63;63.88;99108.16;5014016;28;20038;-76
2022/04/06 08:37:43;;;;;;;5.40;4.28;;;;;;;13.48;64.36;99097.06;4996330;28;20049;-73
2022/04/06 08:40:12;;;;;;;6.13;4.65;;;;;;;13.64;63.51;99098.28;4996497;28;20021;-74
2022/04/06 08:42:38;;;;;;;5.00;4.18;;;;;;;13.54;62.83;99082.75;4996517;28;20034;-74
2022/04/06 08:45:05;;;;;;;5.35;4.35;;;;;;;13.57;63.08;99082.44;5012738;28;20037;-75
2022/04/06 08:47:32;;;;;;;9.93;4.32;;;;;;;13.76;62.90;99103.38;4996350;28;20610;-74
2022/04/06 08:50:07;;;;;;;11.23;5.13;;;;;;;13.96;61.42;99098.59;4996091;28;20495;-75
2022/04/06 08:52:34;;;;;;;6.47;4.57;;;;;;;14.10;61.12;99103.94;5013638;28;20026;-75
2022/04/06 08:55:01;;;;;;;5.32;4.15;;;;;;;14.12;60.92;99101.31;5012523;28;20034;-75
2022/04/06 08:57:27;;;;;;;7.07;4.15;;;;;;;14.20;60.76;99105.16;5012380;28;20100;-75
2022/04/06 08:59:54;;;;;;;5.95;3.55;;;;;;;14.01;60.66;99089.19;5013926;28;20026;-76
2022/04/06 09:02:22;;;;;;;8.45;4.38;;;;;;;14.29;60.09;99109.78;4996100;28;20076;-73
2022/04/06 09:05:04;;;;;;;5.45;3.80;;;;;;;14.26;59.85;99108.72;5012510;28;20040;-76
2022/04/06 09:07:31;;;;;;;4.90;3.95;;;;;;;14.32;60.66;99094.38;5012260;28;20452;-75
2022/04/06 09:09:58;;;;;;;5.63;4.40;;;;;;;14.59;59.75;99106.91;5012133;28;20459;-75
2022/04/06 09:12:25;;;;;;;5.85;4.78;;;;;;;14.96;58.45;99100.50;5013305;28;20032;-76
2022/04/06 09:15:11;;;;;;;6.63;5.00;;;;;;;15.00;57.60;99100.97;5012278;28;20045;-75
2022/04/06 09:17:57;;;;;;;6.75;4.85;;;;;;;15.04;57.69;99093.66;5013996;28;20034;-74
2022/04/06 09:20:26;;;;;;;8.13;5.45;;;;;;;15.00;57.37;99098.88;5011635;28;20034;-75
2022/04/06 09:22:52;;;;;;;7.05;5.47;;;;;;;15.01;57.67;99097.56;4996276;28;20026;-75
2022/04/06 09:25:22;;;;;;;5.43;4.20;;;;;;;15.11;57.48;99078.69;4979898;28;20034;-76
2022/04/06 09:27:48;;;;;;;6.38;5.07;;;;;;;15.50;55.55;99071.63;5011572;28;20111;-75
2022/04/06 09:30:16;;;;;;;6.38;5.53;;;;;;;15.54;55.26;99092.25;4995593;28;20053;-75
2022/04/06 09:32:43;;;;;;;6.20;4.97;;;;;;;15.47;54.58;99087.88;5013422;28;20034;-74
2022/04/06 09:35:32;;;;;;;7.10;5.03;;;;;;;15.48;54.82;99077.16;4995614;28;20042;-74
2022/04/06 09:38:25;;;;;;;8.05;5.03;;;;;;;15.42;55.30;99082.19;5027658;28;20113;-76
2022/04/06 09:41:14;;;;;;;5.85;4.95;;;;;;;15.32;54.80;99078.16;5031674;28;20036;-77
2022/04/06 09:43:53;;;;;;;7.35;5.28;;;;;;;15.09;55.28;99089.94;5016822;28;20026;-75
2022/04/06 09:49:20;;;;;;;8.13;5.68;;;;;;;15.18;55.57;99085.91;5013245;28;20134;-75
2022/04/06 09:51:50;;;;;;;6.50;5.38;;;;;;;15.26;56.14;99080.31;4995653;28;20038;-74
2022/04/06 09:54:18;;;;;;;5.72;4.93;;;;;;;15.42;55.21;99080.09;4995920;28;20076;-75
2022/04/06 09:56:46;;;;;;;7.05;4.75;;;;;;;15.58;54.29;99066.09;4995573;28;20040;-74
2022/04/06 09:59:13;;;;;;;7.20;5.35;;;;;;;15.32;53.95;99084.69;5011553;28;20058;-73
2022/04/06 10:01:47;;;;;;;6.90;5.18;;;;;;;15.28;55.20;99089.16;5011807;28;20136;-74
2022/04/06 10:04:14;;;;;;;9.15;4.32;;;;;;;15.08;55.66;99088.38;5012531;28;20487;-74
2022/04/06 10:06:41;;;;;;;4.32;3.63;;;;;;;14.83;56.95;99080.34;4999377;28;20479;-74
2022/04/06 10:09:15;;;;;;;4.80;3.80;;;;;;;14.73;56.61;99087.75;4999758;28;20124;-75
2022/04/06 10:11:41;;;;;;;3.50;3.10;;;;;;;14.79;57.23;99091.34;5000713;28;20069;-74
2022/04/06 10:14:09;;;;;;;7.30;3.83;;;;;;;14.49;57.04;99082.78;5000865;28;20411;-74
2022/04/06 10:16:46;;;;;;;6.05;3.42;;;;;;;14.31;58.60;99095.66;5004343;28;20120;-74
2022/04/06 10:19:15;;;;;;;3.80;3.05;;;;;;;14.08;59.90;99088.59;5025313;28;20184;-74
2022/04/06 10:21:59;;;;;;;4.15;3.63;;;;;;;14.13;60.69;99093.50;5042918;28;20100;-74
2022/04/06 10:24:51;;;;;;;3.28;2.90;;;;;;;14.25;59.69;99084.28;5039932;28;20025;-72
2022/04/06 10:27:35;;;;;;;3.30;3.00;;;;;;;14.51;59.58;99088.75;5036081;28;20036;-73
2022/04/06 10:30:17;;;;;;;5.75;3.60;;;;;;;14.44;60.70;99090.13;5037010;28;20033;-72
2022/04/06 10:32:52;;;;;;;4.22;3.28;;;;;;;14.74;59.82;99075.75;5045238;28;20102;-77
2022/04/06 10:35:20;;;;;;;5.32;3.65;;;;;;;15.24;59.44;99083.75;5048835;28;20025;-73
2022/04/06 10:38:06;;;;;;;3.53;3.15;;;;;;;15.90;57.30;99072.63;5040741;28;20195;-76
2022/04/06 10:40:59;;;;;;;3.97;3.40;;;;;;;16.13;53.94;99065.22;5036993;28;20085;-73
2022/04/06 10:43:44;;;;;;;4.72;3.55;;;;;;;16.46;53.93;99077.44;5031348;28;20072;-73
2022/04/06 10:46:15;;;;;;;3.70;3.30;;;;;;;16.43;53.06;99070.69;5036618;28;20033;-74
2022/04/06 10:49:16;;;;;;;4.90;4.35;;;;;;;15.91;53.46;99060.59;5034558;28;20482;-73
2022/04/06 10:51:45;;;;;;;9.73;5.28;;;;;;;15.80;55.06;99060.00;5032064;28;20453;-72
2022/04/06 10:54:14;;;;;;;8.18;4.10;;;;;;;15.80;55.41;99062.88;5035895;28;20044;-72
2022/04/06 10:56:53;;;;;;;8.43;4.60;;;;;;;16.08;55.60;99060.34;5036220;28;20033;-72
2022/04/06 10:59:34;;;;;;;4.97;4.25;;;;;;;16.23;55.01;99059.81;5032500;28;20364;-72
2022/04/06 11:02:19;;;;;;;4.78;4.18;;;;;;;16.55;54.80;99056.88;5034700;28;20034;-73
2022/04/06 11:04:49;;;;;;;4.55;4.15;;;;;;;17.08;53.92;99054.81;5035655;28;20087;-72
2022/04/06 11:10:33;;;;;;;5.72;4.78;;;;;;;18.03;50.71;99041.94;5034703;28;20051;-73
2022/04/06 11:13:11;;;;;;;5.35;4.85;;;;;;;18.26;49.37;99045.00;5034613;28;20095;-75
2022/04/06 11:15:40;;;;;;;8.40;5.38;;;;;;;18.42;49.20;99053.22;5034349;28;20029;-74
2022/04/06 11:18:49;;;;;;;5.85;5.25;;;;;;;18.27;47.33;99040.78;5034683;28;20056;-72
2022/04/06 11:21:15;;;;;;;7.75;5.30;;;;;;;18.11;48.46;99049.31;5035351;28;20163;-73
2022/04/06 11:23:42;;;;;;;6.40;5.78;;;;;;;17.97;48.89;99044.94;5034026;28;20466;-73
2022/04/06 11:26:08;;;;;;;8.45;5.53;;;;;;;17.71;48.38;99039.31;5034996;28;20082;-74
2022/04/06 11:28:35;;;;;;;7.90;5.78;;;;;;;17.60;49.10;99034.59;5034003;28;20033;-73
2022/04/06 11:31:04;;;;;;;6.93;5.30;;;;;;;17.41;49.75;99044.69;5034170;28;20017;-73
2022/04/06 11:33:40;;;;;;;7.35;5.82;;;;;;;17.31;49.37;99041.50;5035256;28;20620;-72
2022/04/06 11:36:18;;;;;;;6.47;5.00;;;;;;;17.28;48.08;99036.84;5033799;28;20414;-72
2022/04/06 11:38:51;;;;;;;8.80;5.10;;;;;;;17.03;48.69;99044.19;5017957;28;20370;-75
2022/04/06 11:41:22;;;;;;;7.35;5.65;;;;;;;16.80;49.82;99038.13;5035409;28;20106;-71
2022/04/06 11:43:50;;;;;;;6.22;4.80;;;;;;;16.94;49.58;99033.13;5032807;28;20510;-73
2022/04/06 11:46:18;;;;;;;7.22;4.57;;;;;;;17.12;49.43;99038.00;5034036;28;20029;-73
2022/04/06 11:48:45;;;;;;;7.40;5.07;;;;;;;17.02;49.96;99029.03;5034810;28;20025;-73
2022/04/06 11:51:11;;;;;;;8.35;5.22;;;;;;;17.13;49.99;99028.00;5029120;28;20061;-72